Etusivu
METAR-TAF:

METAR-TAF

Lentoasemat :

Greenville, Mississippi, Yhdysvallat

Leveyspiiri: 33-28-58N, Pituuspiiri: 090-59-08W, korkeus merenpinnasta: 40 m

Tämänhetkinen sää

Tämä raportti tehtiin 18 minuuttia sitten, kello 11.53 UTC
Tuuli 9 kn pohjoisesta
Lämpötila 13°C
Kosteus 88%
Ilmanpaine 1018 hPa
Näkyvyys: 9.7 km
Muutamia pilviä 9500 ft:n korkeudessa
utua

METAR: KGLH 051153Z 36009KT 6SM BR FEW095 13/11 A3005 RMK AO2 SLP182 T01280111 10150 20128 53014

Aika: 07:11 (12:11 UTC)

Sääennuste

Tämä raportti tehtiin 51 minuuttia sitten, kello 11.20 UTC
Ennuste voimassa 05. päivästä klo 12 UTC - 06. päivään klo 12 UTC
Tuuli 6 kn pohjoisesta
Näkyvyys: 10 km
Hajanaisia pilviä 8000 ft:n korkeudessa
Hajonneita pilviä 10000 ft:n korkeudessa

TAF: KGLH 051120Z 0512/0612 01006KT P6SM SCT080 BKN100

Säähavainnot ja -ennusteet yli 4000 lentoasemalta (METAR- ja TAF-raportit).

Käytössä olevat sääasemat on merkitty karttaan keltaisilla ja punaisilla pisteillä.

Aseta hiiri pisteen päälle nähdäksesi sääaseman nimen.

Klikkaa sitten nähdäksesi säähavainnot ja -ennusteet.

Kartan vaihtaminen: klikkaa mustalla rastilla varustettuja vihreitä pisteitä, niin voit zoomata sisään; viivalla varustettua vihreää pistettä, niin voit zoomata ulos tai vihreitä nuolia, niin pääset viereisille kartoille.


METAR-TAF: